Latest Weather Observations for Murrurundi Gap

IDN60801

Issued at 11:32 pm EDT Wednesday 10 February 2016 (issued every 30 minutes, with the page automatically refreshed every 10 minutes)

About weather observations | Map of weather stations | Latest weather observations for NSW | Other Formats
Station Details ID: 061392 Name: MURRURUNDI GAP AWS Lat: -31.74 Lon: 150.79 Height: 729.4 m
Data from the previous 72 hours. | See also: Recent months at Murrurundi Gap
Date/Time
EDT
Temp
°C
App
Temp
°C
Dew
Point
Rel
Hum
%
Delta-T
°C
Wind Press
QNH
hPa
Press
MSL
hPa
Rain
since 9 am
mm
Dir
 
Spd
km/h
Gust
km/h
Spd
kts
Gust
kts
10/11:30pm 19.6 18.7 13.8 69 3.4 S 11 15 6 8 1016.0 1012.1 0.2
10/11:00pm 19.8 18.4 13.5 67 3.7 S 13 17 7 9 1016.2 1012.3 0.2
10/10:30pm 20.2 18.3 12.9 63 4.3 S 15 20 8 11 1016.3 1012.4 0.2
10/10:00pm 20.1 17.8 11.8 59 4.8 S 15 19 8 10 1016.3 1012.4 0.2
10/09:30pm 20.6 18.6 11.5 56 5.2 S 13 17 7 9 1016.1 1012.2 0.2
10/09:00pm 21.4 18.6 11.4 53 5.7 S 17 20 9 11 1016.0 1012.1 0.2
10/08:30pm 21.8 20.0 10.9 50 6.2 SSE 11 17 6 9 1015.9 1012.0 0.2
10/08:00pm 22.2 19.7 9.7 45 7.0 SE 13 17 7 9 1015.5 1011.6 0.2
10/07:30pm 23.4 19.9 8.7 39 8.1 SSE 17 22 9 12 1015.2 1011.3 0.2
10/07:00pm 24.4 19.2 7.1 33 9.4 SSE 24 30 13 16 1014.9 1011.0 0.2
10/06:30pm 25.0 20.5 8.5 35 9.2 SSE 22 28 12 15 1014.7 1010.8 0.2
10/06:00pm 25.5 21.3 8.1 33 9.6 SE 20 28 11 15 1014.7 1010.8 0.2
10/05:30pm 25.7 20.6 5.8 28 10.6 SE 22 32 12 17 1014.8 1010.9 0.2
10/05:00pm 26.1 20.7 6.2 28 10.7 SSE 24 33 13 18 1014.8 1010.9 0.2
10/04:30pm 26.3 21.6 7.8 31 10.2 SSE 22 32 12 17 1015.0 1011.1 0.2
10/04:00pm 26.7 22.3 6.7 28 10.9 SE 19 26 10 14 1015.2 1011.3 0.2
10/03:30pm 26.2 21.7 6.8 29 10.5 ESE 20 26 11 14 1015.4 1011.5 0.2
10/03:00pm 25.6 22.1 8.6 34 9.5 ESE 17 24 9 13 1015.8 1011.9 0.2
10/02:30pm 25.3 22.4 11.1 41 8.3 SE 17 22 9 12 1016.2 1012.3 0.2
10/02:00pm 25.2 23.3 11.7 43 7.9 SE 13 22 7 12 1016.6 1012.7 0.2
10/01:30pm 24.6 21.8 11.5 44 7.6 SE 17 24 9 13 1016.8 1013.0 0.2
10/01:00pm 23.5 20.7 11.5 47 7.0 SE 17 22 9 12 1017.3 1013.4 0.2
10/12:30pm 23.4 21.4 12.7 51 6.3 SE 15 22 8 12 1017.6 1013.7 0.2
10/12:00pm 22.8 20.6 12.1 51 6.3 SE 15 24 8 13 1018.0 1014.1 0.2
10/11:30am 21.7 19.3 10.2 48 6.5 SE 13 19 7 10 1018.3 1014.5 0.2
10/11:00am 21.1 18.4 10.3 50 6.1 SE 15 20 8 11 1018.4 1014.6 0.2
10/10:30am 21.0 18.4 11.9 56 5.3 SSE 17 24 9 13 1018.4 1014.6 0.2
10/10:00am 19.7 17.1 12.0 61 4.4 SSE 17 22 9 12 1018.5 1014.7 0.0
10/09:30am 19.1 16.8 13.1 68 3.5 SE 17 22 9 12 1018.5 1014.7 0.0
10/09:00am 18.1 15.9 13.4 74 2.7 SE 17 20 9 11 1018.5 1014.7 0.0
10/08:30am 16.9 14.3 13.2 79 2.1 SE 19 24 10 13 1018.3 1014.5 0.0
10/08:00am 16.0 14.7 13.7 86 1.3 SE 13 17 7 9 1018.3 1014.5 0.0
10/07:30am 14.4 12.9 13.0 91 0.8 SE 13 17 7 9 1018.1 1014.3 0.0
10/07:00am 13.6 11.8 13.3 98 0.2 SE 15 17 8 9 1018.0 1014.1 0.0
10/06:30am 13.0 10.6 12.7 98 0.2 SE 17 20 9 11 1017.9 1014.0 0.0
10/06:00am 12.8 10.4 12.5 98 0.2 SSE 17 20 9 11 1017.8 1013.9 0.0
10/05:30am 13.0 9.7 12.7 98 0.2 SSE 22 26 12 14 1017.6 1013.7 0.0
10/05:00am 13.2 10.8 12.7 97 0.3 SE 17 20 9 11 1017.4 1013.5 0.0
10/04:30am 13.4 10.8 13.2 99 0.1 SSE 19 24 10 13 1017.4 1013.5 0.0
10/04:00am 13.6 11.1 13.4 99 0.1 SE 19 22 10 12 1017.5 1013.6 0.0
10/03:30am 13.6 11.4 13.3 98 0.2 SE 17 22 9 12 1017.6 1013.7 0.0
10/03:00am 13.8 11.2 13.3 97 0.3 SSE 19 24 10 13 1017.8 1013.9 0.0
10/02:30am 14.0 11.4 13.2 95 0.5 SE 19 24 10 13 1018.1 1014.3 0.0
10/02:00am 14.6 12.3 13.1 91 0.9 SE 17 24 9 13 1018.5 1014.7 0.0
10/01:30am 15.0 12.1 12.9 87 1.2 SE 20 28 11 15 1018.8 1014.9 0.0
10/01:00am 15.9 13.0 13.0 83 1.7 SE 20 28 11 15 1019.1 1015.2 0.0
10/12:30am 16.9 12.6 13.2 79 2.1 SSE 28 37 15 20 1019.2 1015.3 0.0
10/12:00am 17.2 14.1 13.5 79 2.2 SE 22 28 12 15 1019.6 1015.8 0.0
 
Date/Time
EDT
Temp
°C
App
Temp
°C
Dew
Point
Rel
Hum
%
Delta-T
°C
Wind Press
QNH
hPa
Press
MSL
hPa
Rain
since 9 am
mm
Dir
 
Spd
km/h
Gust
km/h
Spd
kts
Gust
kts
09/11:30pm 17.1 14.5 13.2 78 2.3 SE 19 26 10 14 1019.8 1016.0 0.0
09/11:00pm 17.5 14.8 13.4 77 2.4 SE 20 24 11 13 1019.8 1016.0 0.0
09/10:30pm 17.8 15.0 13.3 75 2.6 SE 20 26 11 14 1019.8 1016.0 0.0
09/10:00pm 17.8 14.6 13.1 74 2.7 SE 22 28 12 15 1019.8 1016.0 0.0
09/09:30pm 18.9 14.9 13.1 69 3.4 SE 26 33 14 18 1019.7 1015.9 0.0
09/09:00pm 19.1 16.3 13.1 68 3.5 SE 20 24 11 13 1019.6 1015.8 0.0
09/08:30pm 19.7 17.0 12.9 65 4.0 SE 19 22 10 12 1019.5 1015.7 0.0
09/08:00pm 20.4 17.4 12.1 59 4.8 SE 19 26 10 14 1019.4 1015.6 0.0
09/07:30pm 21.6 17.3 11.9 54 5.6 SSE 26 37 14 20 1019.2 1015.3 0.0
09/07:00pm 22.4 17.9 11.5 50 6.3 SSE 26 35 14 19 1019.0 1015.1 0.0
09/06:30pm 22.7 17.7 11.1 48 6.7 SSE 28 35 15 19 1018.8 1014.9 0.0
09/06:00pm 23.2 18.7 11.3 47 6.9 SSE 26 35 14 19 1018.8 1014.9 0.0
09/05:30pm 23.4 18.3 10.5 44 7.4 SE 28 37 15 20 1019.0 1015.1 0.0
09/05:00pm 23.9 18.7 11.6 46 7.2 SSE 30 46 16 25 1019.0 1015.1 0.0
09/04:58pm 24.0 19.2 11.7 46 7.2 SSE 28 46 15 25 1019.0 1015.1 0.0
09/04:30pm 24.0 18.1 10.3 42 7.8 SE 32 41 17 22 1019.1 1015.2 0.0
09/04:12pm 24.0 18.3 11.3 45 7.4 SE 32 50 17 27 1019.2 1015.3 0.0
09/04:00pm 23.7 17.7 12.0 48 6.8 SE 35 50 19 27 1019.1 1015.2 0.0
09/03:52pm 24.6 19.5 11.9 45 7.5 SE 30 48 16 26 1019.3 1015.5 0.0
09/03:30pm 23.8 18.0 11.5 46 7.2 SE 33 50 18 27 1019.4 1015.6 0.0
09/03:22pm 24.2 18.9 12.5 48 6.9 SSE 32 50 17 27 1019.5 1015.7 0.0
09/03:00pm 24.6 19.7 12.5 46 7.2 SE 30 43 16 23 1019.8 1016.0 0.0
09/02:30pm 23.2 17.6 12.2 50 6.5 SSE 33 46 18 25 1020.2 1016.3 0.0
09/02:00pm 23.1 17.1 12.1 50 6.4 SSE 35 48 19 26 1020.4 1016.5 0.0
09/01:30pm 23.6 17.3 12.3 49 6.7 SE 37 54 20 29 1020.6 1016.8 0.0
09/01:15pm 22.0 16.2 12.8 56 5.4 SE 35 54 19 29 1020.8 1017.0 0.0
09/01:00pm 21.9 16.7 13.3 58 5.1 SSE 33 46 18 25 1020.9 1017.1 0.0
09/12:31pm 21.7 17.4 14.4 63 4.4 SSE 30 50 16 27 1021.4 1017.6 0.0
09/12:30pm 21.7 17.5 14.6 64 4.3 SSE 30 37 16 20 1021.4 1017.6 0.0
09/12:00pm 20.8 16.4 14.0 65 4.1 SSE 30 41 16 22 1021.7 1017.8 0.0
09/11:30am 21.9 16.0 14.8 64 4.3 SSE 39 46 21 25 1021.5 1017.7 0.0
09/11:00am 20.9 16.1 14.5 67 3.9 SSE 33 48 18 26 1021.8 1018.0 0.0
09/10:41am 21.1 17.0 15.9 72 3.2 SE 32 50 17 27 1021.9 1018.1 0.0
09/10:30am 20.6 16.1 15.4 72 3.2 SSE 33 43 18 23 1021.8 1018.0 0.0
09/10:00am 19.9 14.9 14.0 69 3.5 SE 33 48 18 26 1021.4 1017.6 0.0
09/09:30am 18.6 13.1 13.5 72 3.0 SE 35 50 19 27 1021.3 1017.5 0.0
09/09:00am 18.3 13.1 14.6 79 2.2 SE 35 46 19 25 1021.1 1017.3 0.0
09/08:30am 16.3 11.6 14.8 91 0.9 SE 33 41 18 22 1020.9 1017.1 0.0
09/08:23am 16.0 11.7 15.4 96 0.4 SE 32 41 17 22 1020.9 1017.1 0.0
09/08:00am 15.8 12.3 15.6 99 0.1 SE 28 35 15 19 1020.8 1017.0 0.0
09/07:30am 14.5 11.7 14.3 99 0.1 SE 22 30 12 16 1020.8 1017.0 0.0
09/07:00am 14.0 12.0 13.8 99 0.1 SE 17 22 9 12 1020.5 1016.6 0.0
09/06:30am 14.0 12.0 13.8 99 0.1 SSE 17 22 9 12 1020.0 1016.2 0.0
09/06:00am 13.6 11.1 13.4 99 0.1 SE 19 22 10 12 1019.7 1015.9 0.0
09/05:30am 13.5 11.3 13.3 99 0.1 SE 17 20 9 11 1019.6 1015.8 0.0
09/05:05am 13.1 11.5 12.8 98 0.2 SE 13 17 7 9 1019.4 1015.6 0.0
09/05:00am 13.1 11.4 12.6 97 0.3 SE 13 17 7 9 1019.4 1015.6 0.0
09/04:30am 14.3 12.2 13.7 96 0.3 SSE 17 22 9 12 1019.3 1015.5 0.0
09/04:00am 13.4 11.4 12.6 95 0.5 SE 15 20 8 11 1019.4 1015.6 0.0
09/03:30am 14.4 11.6 13.1 92 0.7 SSE 20 26 11 14 1019.2 1015.3 0.0
09/03:00am 15.0 12.3 13.0 88 1.1 SSE 19 24 10 13 1019.4 1015.6 0.0
09/02:30am 15.0 12.8 13.2 89 1.0 SE 17 20 9 11 1019.7 1015.9 0.0
09/02:00am 15.2 12.5 13.4 89 1.0 SE 20 24 11 13 1019.9 1016.1 0.0
09/01:30am 15.3 13.1 13.2 87 1.2 SE 17 24 9 13 1020.2 1016.3 0.0
09/01:00am 15.7 13.1 13.2 85 1.4 SE 19 24 10 13 1020.3 1016.4 0.0
09/12:30am 16.3 13.2 13.4 83 1.7 SE 22 26 12 14 1020.4 1016.5 0.0
09/12:00am 16.6 14.0 13.7 83 1.7 SE 20 26 11 14 1020.6 1016.8 0.0
 
Date/Time
EDT
Temp
°C
App
Temp
°C
Dew
Point
Rel
Hum
%
Delta-T
°C
Wind Press
QNH
hPa
Press
MSL
hPa
Rain
since 9 am
mm
Dir
 
Spd
km/h
Gust
km/h
Spd
kts
Gust
kts
08/11:30pm 16.7 14.2 14.0 84 1.6 SE 20 24 11 13 1020.5 1016.6 0.0
08/11:00pm 17.0 14.3 14.5 85 1.5 SE 22 26 12 14 1020.3 1016.4 0.0
08/10:30pm 17.2 14.8 14.5 84 1.6 SE 20 24 11 13 1020.3 1016.4 0.0
08/10:00pm 17.9 15.1 14.4 80 2.1 SE 22 28 12 15 1020.2 1016.3 0.0
08/09:30pm 18.6 15.9 14.7 78 2.3 SE 22 28 12 15 1020.0 1016.2 0.0
08/09:00pm 19.5 15.9 14.3 72 3.1 SE 26 37 14 20 1019.6 1015.8 0.0
08/08:30pm 20.3 15.3 14.0 67 3.8 SSE 33 43 18 23 1019.3 1015.5 0.0
08/08:00pm 20.7 16.9 14.8 69 3.6 SE 28 39 15 21 1019.1 1015.2 0.0
08/07:30pm 21.7 17.1 14.6 64 4.3 SSE 32 43 17 23 1018.8 1014.9 0.0
08/07:00pm 22.5 17.8 14.4 60 4.9 SSE 32 44 17 24 1018.4 1014.6 0.0
08/06:30pm 22.8 18.6 14.6 60 5.0 SSE 30 39 16 21 1018.1 1014.3 0.0
08/06:00pm 23.2 19.8 14.7 58 5.2 SSE 26 35 14 19 1018.1 1014.3 0.0
08/05:30pm 23.7 20.5 15.2 59 5.3 SSE 26 39 14 21 1018.0 1014.1 0.0
08/05:00pm 23.5 19.9 14.2 56 5.6 SSE 26 37 14 20 1018.1 1014.3 0.0
08/04:30pm 24.1 20.5 15.3 58 5.5 SSE 28 41 15 22 1018.2 1014.4 0.0
08/04:00pm 22.9 19.2 13.9 57 5.4 SSE 26 39 14 21 1018.4 1014.6 0.0
08/03:30pm 22.8 18.6 14.6 60 5.0 SSE 30 43 16 23 1018.5 1014.7 0.0
08/03:00pm 23.7 20.2 15.5 60 5.1 SSE 28 39 15 21 1018.8 1014.9 0.0
08/02:30pm 23.4 19.4 15.2 60 5.1 SSE 30 41 16 22 1019.0 1015.1 0.0
08/02:01pm 22.4 18.3 15.0 63 4.5 SSE 30 48 16 26 1019.2 1015.3 0.0
08/02:00pm 23.1 19.9 16.2 65 4.3 SSE 28 41 15 22 1019.3 1015.5 0.0
08/01:30pm 22.2 18.7 15.5 66 4.1 SSE 28 37 15 20 1019.5 1015.7 0.0
08/01:00pm 22.3 19.1 16.3 69 3.7 SSE 28 43 15 23 1019.6 1015.8 0.0
08/12:30pm 22.2 18.8 15.8 67 4.0 SE 28 43 15 23 1019.9 1016.1 0.0
08/12:00pm 21.6 18.0 15.2 67 3.9 SE 28 37 15 20 1020.3 1016.4 0.0
08/11:30am 21.6 17.9 15.0 66 4.0 SE 28 35 15 19 1020.4 1016.5 0.0
08/11:00am 21.9 19.1 16.4 71 3.4 SE 26 35 14 19 1020.4 1016.5 0.0
08/10:30am 19.9 15.6 14.5 71 3.2 SE 30 37 16 20 1020.3 1016.4 0.0
08/10:00am 19.0 14.7 14.5 75 2.7 SE 30 39 16 21 1020.3 1016.4 0.0
08/09:30am 18.0 13.2 14.1 78 2.3 SE 32 41 17 22 1020.2 1016.3 0.0
08/09:19am 15.8 11.1 13.3 85 1.4 SE 30 41 16 22 1020.3 1016.4 0.0
08/09:00am 15.3 12.8 15.1 99 0.1 SE 22 28 12 15 1020.3 1016.4 0.0
08/08:30am 13.9 11.8 13.7 99 0.1 SE 17 24 9 13 1020.2 1016.3 0.0
08/08:00am 13.0 10.6 12.8 99 0.1 SE 17 20 9 11 1019.9 1016.1 0.0
08/07:30am 12.5 10.0 12.3 99 0.1 SE 17 20 9 11 1019.5 1015.7 0.0
08/07:00am 12.7 10.3 12.5 99 0.1 SE 17 24 9 13 1019.2 1015.3 0.0
08/06:30am 12.2 9.0 12.0 99 0.1 SE 20 26 11 14 1018.7 1014.8 0.0
08/06:00am 12.5 9.0 12.3 99 0.1 SSE 22 28 12 15 1018.4 1014.6 0.0
08/05:30am 12.7 8.5 12.5 99 0.1 SSE 26 32 14 17 1018.1 1014.3 0.0
08/05:00am 12.6 8.8 12.4 99 0.1 SSE 24 32 13 17 1018.0 1014.1 0.0
08/04:30am 12.8 8.7 12.6 99 0.1 SSE 26 32 14 17 1018.0 1014.1 0.0
08/04:14am 13.0 8.9 12.8 99 0.1 SSE 26 32 14 17 1017.9 1014.0 0.0
08/04:00am 12.9 7.6 12.6 98 0.2 SSE 32 37 17 20 1017.8 1013.9 0.0
08/03:30am 13.6 8.5 13.0 96 0.3 SSE 32 39 17 21 1017.8 1013.9 0.0
08/03:00am 13.7 8.9 12.9 95 0.5 SSE 30 37 16 20 1018.1 1014.3 0.0
08/02:30am 14.1 8.9 12.7 91 0.8 SSE 32 39 17 21 1018.3 1014.5 0.0
08/02:00am 14.6 9.5 13.0 90 0.9 SSE 32 37 17 20 1018.7 1014.8 0.0
08/01:30am 15.5 10.5 13.3 87 1.3 SE 32 39 17 21 1018.8 1014.9 0.0
08/01:00am 15.7 10.7 13.4 86 1.3 SSE 32 39 17 21 1019.0 1015.1 0.0
08/12:30am 15.8 11.2 13.5 86 1.3 SSE 30 37 16 20 1019.0 1015.1 0.0
08/12:00am 16.4 11.8 13.5 83 1.7 SSE 30 35 16 19 1019.2 1015.3 0.0

Other Formats:

Comma delimited format used in spreadsheet applications
http://www.bom.gov.au/fwo/IDN60801/IDN60801.95747.axf

JavaScript Object Notation format (JSON) in row-major order
http://www.bom.gov.au/fwo/IDN60801/IDN60801.95747.json